createdAt,value
2022-10-19T00:00:24.251Z,9.417998
2022-10-19T00:01:24.255Z,9.418070
2022-10-19T00:02:24.328Z,9.418352
2022-10-19T00:03:24.232Z,9.418353
2022-10-19T00:04:24.223Z,9.418320
2022-10-19T00:05:24.218Z,9.418277
2022-10-19T00:06:24.234Z,9.418236
2022-10-19T00:07:24.195Z,9.418258
2022-10-19T00:08:24.203Z,9.418262
2022-10-19T00:09:24.186Z,9.418178
2022-10-19T00:10:24.175Z,9.418105
2022-10-19T00:11:24.194Z,9.418121
2022-10-19T00:12:24.179Z,9.418157
2022-10-19T00:13:24.160Z,9.418238
2022-10-19T00:14:24.153Z,9.418279
2022-10-19T00:15:24.144Z,9.418229
2022-10-19T00:16:24.139Z,9.418248
2022-10-19T00:17:24.156Z,9.418171
2022-10-19T00:18:24.159Z,9.418189
2022-10-19T00:19:24.126Z,9.418124
2022-10-19T00:20:24.125Z,9.418186
2022-10-19T00:21:24.109Z,9.418251
2022-10-19T00:22:24.107Z,9.418421
2022-10-19T00:23:24.085Z,9.418219
2022-10-19T00:24:24.104Z,9.418242
2022-10-19T00:25:24.067Z,9.418333
2022-10-19T00:26:24.070Z,9.418232
2022-10-19T00:27:24.072Z,9.418306
2022-10-19T00:28:24.062Z,9.418335
2022-10-19T00:29:24.043Z,9.418228
2022-10-19T00:30:24.043Z,9.418318
2022-10-19T00:31:24.036Z,9.418238
2022-10-19T00:32:24.028Z,9.418253
2022-10-19T00:33:24.039Z,9.418283
2022-10-19T00:34:24.015Z,9.418226
2022-10-19T00:35:24.002Z,9.418045
2022-10-19T00:36:24.007Z,9.418265
2022-10-19T00:37:23.999Z,9.418086
2022-10-19T00:38:23.991Z,9.418272
2022-10-19T00:39:23.995Z,9.418370
2022-10-19T00:40:23.977Z,9.418491
2022-10-19T00:41:23.959Z,9.418660
2022-10-19T00:42:23.960Z,9.418672
2022-10-19T00:43:23.951Z,9.418610
2022-10-19T00:44:23.968Z,9.418631
2022-10-19T00:45:23.940Z,9.418426
2022-10-19T00:46:23.937Z,9.418303
2022-10-19T00:47:23.920Z,9.418305
2022-10-19T00:48:23.926Z,9.418193
2022-10-19T00:49:23.923Z,9.418378
2022-10-19T00:50:23.903Z,9.418283
2022-10-19T00:51:23.900Z,9.418242
2022-10-19T00:52:23.892Z,9.418287
2022-10-19T00:53:23.887Z,9.418208
2022-10-19T00:54:23.878Z,9.418345
2022-10-19T00:55:23.879Z,9.418256
2022-10-19T00:56:23.872Z,9.418396
2022-10-19T00:57:23.876Z,9.418426
2022-10-19T00:58:23.859Z,9.418450
2022-10-19T00:59:23.849Z,9.418435
2022-10-19T01:00:23.853Z,9.418301
2022-10-19T01:01:23.907Z,9.418311
2022-10-19T01:02:23.843Z,9.418361
2022-10-19T01:03:23.819Z,9.418262
2022-10-19T01:04:23.806Z,9.418285
2022-10-19T01:05:23.804Z,9.418258
2022-10-19T01:06:23.810Z,9.418253
2022-10-19T01:07:23.791Z,9.418204
2022-10-19T01:08:23.791Z,9.418170
2022-10-19T01:09:23.751Z,9.418222
2022-10-19T01:10:23.767Z,9.418250
2022-10-19T01:11:23.775Z,9.418270
2022-10-19T01:12:23.776Z,9.418212
2022-10-19T01:13:23.750Z,9.418159
2022-10-19T01:14:23.739Z,9.418124
2022-10-19T01:15:23.719Z,9.418204
2022-10-19T01:16:23.729Z,9.418227
2022-10-19T01:17:23.728Z,9.418243
2022-10-19T01:18:23.712Z,9.418268
2022-10-19T01:19:23.699Z,9.418241
2022-10-19T01:20:23.696Z,9.418273
2022-10-19T01:21:23.683Z,9.418297
2022-10-19T01:22:23.702Z,9.418262
2022-10-19T01:23:23.684Z,9.418257
2022-10-19T01:24:23.677Z,9.418262
2022-10-19T01:25:23.659Z,9.418282
2022-10-19T01:26:23.659Z,9.418275
2022-10-19T01:27:23.659Z,9.418326
2022-10-19T01:28:23.631Z,9.418304
2022-10-19T01:29:23.663Z,9.418329
2022-10-19T01:30:23.639Z,9.418308
2022-10-19T01:31:23.615Z,9.418533
2022-10-19T01:32:23.615Z,9.418385
2022-10-19T01:33:23.615Z,9.418437
2022-10-19T01:34:23.615Z,9.418388
2022-10-19T01:35:23.612Z,9.418372
2022-10-19T01:36:23.594Z,9.418369
2022-10-19T01:37:23.579Z,9.418140
2022-10-19T01:38:23.594Z,9.418192
2022-10-19T01:39:23.566Z,9.418280
2022-10-19T01:40:23.555Z,9.418251
2022-10-19T01:41:23.546Z,9.418441
2022-10-19T01:42:23.543Z,9.418529
2022-10-19T01:43:23.554Z,9.418440
2022-10-19T01:44:23.531Z,9.418488
2022-10-19T01:45:23.530Z,9.418258
2022-10-19T01:46:23.522Z,9.418236
2022-10-19T01:47:23.518Z,9.418356
2022-10-19T01:48:23.507Z,9.418364
2022-10-19T01:49:23.500Z,9.418399
2022-10-19T01:50:23.490Z,9.418328
2022-10-19T01:51:23.511Z,9.418223
2022-10-19T01:52:23.479Z,9.418317
2022-10-19T01:53:23.479Z,9.418337
2022-10-19T01:54:23.476Z,9.418243
2022-10-19T01:55:23.476Z,9.418335
2022-10-19T01:56:23.438Z,9.418247
2022-10-19T01:57:23.461Z,9.418236
2022-10-19T01:58:23.461Z,9.418307
2022-10-19T01:59:23.438Z,9.418315
2022-10-19T02:00:23.434Z,9.418317
2022-10-19T02:01:23.425Z,9.418305
2022-10-19T02:02:23.434Z,9.418302
2022-10-19T02:03:23.414Z,9.418218
2022-10-19T02:04:23.393Z,9.418276
2022-10-19T02:05:23.464Z,9.418364
2022-10-19T02:06:23.395Z,9.418256
2022-10-19T02:07:23.430Z,9.418270
2022-10-19T02:08:23.370Z,9.418351
2022-10-19T02:09:23.387Z,9.418416
2022-10-19T02:10:23.367Z,9.418422
2022-10-19T02:11:23.364Z,9.418460
2022-10-19T02:12:23.348Z,9.418409
2022-10-19T02:13:23.343Z,9.418375
2022-10-19T02:14:23.339Z,9.418402
2022-10-19T02:15:23.388Z,9.418339
2022-10-19T02:16:23.318Z,9.418603
2022-10-19T02:17:23.316Z,9.418491
2022-10-19T02:18:23.294Z,9.418338
2022-10-19T02:20:23.335Z,9.418377
2022-10-19T02:21:23.274Z,9.418318
2022-10-19T02:22:23.281Z,9.418369
2022-10-19T02:23:23.264Z,9.418287
2022-10-19T02:24:23.289Z,9.418386
2022-10-19T02:25:23.258Z,9.418409
2022-10-19T02:26:23.250Z,9.418391
2022-10-19T02:27:23.262Z,9.418373
2022-10-19T02:28:23.231Z,9.418365
2022-10-19T02:29:23.258Z,9.418327
2022-10-19T02:30:23.246Z,9.418424
2022-10-19T02:31:23.224Z,9.418374
2022-10-19T02:32:23.214Z,9.418354
2022-10-19T02:33:23.203Z,9.418377
2022-10-19T02:34:23.206Z,9.418348
2022-10-19T02:35:23.202Z,9.418336
2022-10-19T02:36:23.178Z,9.418361
2022-10-19T02:37:25.488Z,9.418285
2022-10-19T02:38:23.163Z,9.418277
2022-10-19T02:39:24.194Z,9.418279
2022-10-19T02:40:23.170Z,9.418319
2022-10-19T02:41:23.167Z,9.418389
2022-10-19T02:42:23.144Z,9.418365
2022-10-19T02:43:23.134Z,9.418385
2022-10-19T02:44:23.121Z,9.418340
2022-10-19T02:45:23.158Z,9.418350
2022-10-19T02:46:23.118Z,9.418290
2022-10-19T02:47:23.106Z,9.418253
2022-10-19T02:48:23.098Z,9.418363
2022-10-19T02:49:23.094Z,9.418403
2022-10-19T02:50:23.107Z,9.418438
2022-10-19T02:51:23.099Z,9.418466
2022-10-19T02:52:23.066Z,9.418353
2022-10-19T02:53:23.053Z,9.418322
2022-10-19T02:54:23.054Z,9.418362
2022-10-19T02:55:23.086Z,9.418359
2022-10-19T02:56:23.038Z,9.418354
2022-10-19T02:57:23.036Z,9.418323
2022-10-19T02:58:23.058Z,9.418349
2022-10-19T02:59:23.025Z,9.418378
2022-10-19T03:00:23.014Z,9.418320
2022-10-19T03:01:23.008Z,9.418263
2022-10-19T03:02:23.016Z,9.418301
2022-10-19T03:03:22.997Z,9.418340
2022-10-19T03:04:22.981Z,9.418366
2022-10-19T03:05:22.990Z,9.418341
2022-10-19T03:06:22.966Z,9.418335
2022-10-19T03:07:22.971Z,9.418358
2022-10-19T03:08:22.955Z,9.418360
2022-10-19T03:09:22.969Z,9.418440
2022-10-19T03:10:22.948Z,9.418353
2022-10-19T03:11:22.938Z,9.418407
2022-10-19T03:12:22.935Z,9.418310
2022-10-19T03:13:22.933Z,9.418363
2022-10-19T03:14:22.915Z,9.418265
2022-10-19T03:15:22.921Z,9.418310
2022-10-19T03:16:22.905Z,9.418311
2022-10-19T03:17:22.896Z,9.418292
2022-10-19T03:18:22.894Z,9.418322
2022-10-19T03:19:22.885Z,9.418347
2022-10-19T03:20:22.889Z,9.418319
2022-10-19T03:21:22.877Z,9.418344
2022-10-19T03:22:22.862Z,9.418294
2022-10-19T03:23:22.849Z,9.418289
2022-10-19T03:24:22.855Z,9.418319
2022-10-19T03:25:22.853Z,9.418347
2022-10-19T03:26:22.839Z,9.418365
2022-10-19T03:27:22.838Z,9.418314
2022-10-19T03:28:22.820Z,9.418293
2022-10-19T03:29:22.822Z,9.418267
2022-10-19T03:30:22.820Z,9.418254
2022-10-19T03:31:23.817Z,9.418303
2022-10-19T03:32:22.793Z,9.418306
2022-10-19T03:33:22.903Z,9.418317
2022-10-19T03:34:22.786Z,9.418349
2022-10-19T03:35:22.773Z,9.418315
2022-10-19T03:36:22.779Z,9.418298
2022-10-19T03:37:22.774Z,9.418290
2022-10-19T03:38:22.758Z,9.418290
2022-10-19T03:39:22.753Z,9.418287
2022-10-19T03:40:22.758Z,9.418307
2022-10-19T03:41:22.822Z,9.418222
2022-10-19T03:42:22.745Z,9.418250
2022-10-19T03:43:22.705Z,9.418212
2022-10-19T03:44:22.703Z,9.418252
2022-10-19T03:45:22.707Z,9.418320
2022-10-19T03:46:22.734Z,9.418283
2022-10-19T03:47:22.705Z,9.418282
2022-10-19T03:48:22.679Z,9.418328
2022-10-19T03:49:22.682Z,9.418352
2022-10-19T03:50:22.674Z,9.418297
2022-10-19T03:51:22.665Z,9.418303
2022-10-19T03:52:22.673Z,9.418364
2022-10-19T03:53:22.650Z,9.418315
2022-10-19T03:54:25.077Z,9.418270
2022-10-19T03:55:22.646Z,9.418165
2022-10-19T03:56:22.630Z,9.418148
2022-10-19T03:57:22.624Z,9.418273
2022-10-19T03:58:22.638Z,9.418375
2022-10-19T03:59:22.614Z,9.418312
2022-10-19T04:00:22.602Z,9.418344
2022-10-19T04:01:22.698Z,9.418241
2022-10-19T04:02:22.593Z,9.418240
2022-10-19T04:03:22.661Z,9.418259
2022-10-19T04:04:22.593Z,9.418189
2022-10-19T04:05:22.602Z,9.418224
2022-10-19T04:06:22.558Z,9.418242
2022-10-19T04:07:22.549Z,9.418308
2022-10-19T04:08:22.589Z,9.418350
2022-10-19T04:09:22.541Z,9.418343
2022-10-19T04:10:22.547Z,9.418356
2022-10-19T04:11:22.535Z,9.418391
2022-10-19T04:12:22.525Z,9.418357
2022-10-19T04:13:22.530Z,9.418219
2022-10-19T04:14:31.872Z,9.418233
2022-10-19T04:15:24.498Z,9.418283
2022-10-19T04:16:22.497Z,9.418159
2022-10-19T04:17:22.494Z,9.418191
2022-10-19T04:18:22.481Z,9.418224
2022-10-19T04:19:22.494Z,9.418223
2022-10-19T04:20:22.482Z,9.418322
2022-10-19T04:21:22.463Z,9.418297
2022-10-19T04:22:22.445Z,9.418261
2022-10-19T04:23:22.460Z,9.418237
2022-10-19T04:24:22.445Z,9.418235
2022-10-19T04:25:22.437Z,9.418210
2022-10-19T04:26:22.435Z,9.418096
2022-10-19T04:27:22.413Z,9.418200
2022-10-19T04:28:22.418Z,9.418196
2022-10-19T04:29:24.974Z,9.418162
2022-10-19T04:30:23.393Z,9.418137
2022-10-19T04:31:22.382Z,9.418237
2022-10-19T04:32:22.385Z,9.418220
2022-10-19T04:33:22.378Z,9.418243
2022-10-19T04:34:22.395Z,9.418200
2022-10-19T04:35:22.361Z,9.418189
2022-10-19T04:36:22.355Z,9.418263
2022-10-19T04:37:22.351Z,9.418226
2022-10-19T04:38:22.346Z,9.418254
2022-10-19T04:39:22.365Z,9.418311
2022-10-19T04:40:22.325Z,9.418302
2022-10-19T04:41:22.325Z,9.418243
2022-10-19T04:42:22.318Z,9.418275
2022-10-19T04:43:22.310Z,9.418324
2022-10-19T04:45:22.290Z,9.418353
2022-10-19T04:46:22.286Z,9.418279
2022-10-19T04:47:22.277Z,9.418261
2022-10-19T04:48:22.298Z,9.418205
2022-10-19T04:49:22.269Z,9.418078
2022-10-19T04:50:22.252Z,9.418092
2022-10-19T04:51:22.253Z,9.418070
2022-10-19T04:52:22.269Z,9.418067
2022-10-19T04:53:22.240Z,9.418191
2022-10-19T04:54:22.240Z,9.418249
2022-10-19T04:55:22.240Z,9.418218
2022-10-19T04:56:22.213Z,9.418131
2022-10-19T04:57:22.213Z,9.418148
2022-10-19T04:58:22.204Z,9.418198
2022-10-19T04:59:22.199Z,9.418242
2022-10-19T05:00:22.184Z,9.418332
2022-10-19T05:01:22.232Z,9.418290
2022-10-19T05:02:22.162Z,9.418254
2022-10-19T05:03:22.212Z,9.418267
2022-10-19T05:04:22.317Z,9.418247
2022-10-19T05:05:22.156Z,9.418253
2022-10-19T05:06:22.151Z,9.418309
2022-10-19T05:07:22.141Z,9.418309
2022-10-19T05:08:22.130Z,9.418384
2022-10-19T05:09:22.142Z,9.418268
2022-10-19T05:10:22.228Z,9.418318
2022-10-19T05:11:22.111Z,9.418294
2022-10-19T05:12:22.111Z,9.418238
2022-10-19T05:13:22.103Z,9.418266
2022-10-19T05:14:22.135Z,9.418262
2022-10-19T05:15:22.096Z,9.418303
2022-10-19T05:16:22.078Z,9.418269
2022-10-19T05:17:22.070Z,9.418303
2022-10-19T05:18:22.054Z,9.418344
2022-10-19T05:19:22.063Z,9.418323
2022-10-19T05:20:22.060Z,9.418211
2022-10-19T05:21:22.050Z,9.418233
2022-10-19T05:22:22.043Z,9.418264
2022-10-19T05:23:22.051Z,9.418242
2022-10-19T05:24:22.018Z,9.418263
2022-10-19T05:25:22.015Z,9.418245
2022-10-19T05:26:22.002Z,9.418267
2022-10-19T05:27:22.011Z,9.418212
2022-10-19T05:28:21.991Z,9.418207
2022-10-19T05:29:21.979Z,9.418179
2022-10-19T05:30:22.007Z,9.418204
2022-10-19T05:31:21.982Z,9.418242
2022-10-19T05:32:21.971Z,9.418263
2022-10-19T05:33:21.954Z,9.418255
2022-10-19T05:34:21.955Z,9.418242
2022-10-19T05:35:22.689Z,9.418210
2022-10-19T05:36:21.999Z,9.418253
2022-10-19T05:37:21.932Z,9.418229
2022-10-19T05:38:21.927Z,9.418234
2022-10-19T05:39:21.917Z,9.418180
2022-10-19T05:40:21.915Z,9.418171
2022-10-19T05:41:21.902Z,9.418234
2022-10-19T05:42:21.902Z,9.418204
2022-10-19T05:43:21.902Z,9.418209
2022-10-19T05:44:21.886Z,9.418283
2022-10-19T05:45:21.872Z,9.418237
2022-10-19T05:46:21.902Z,9.418250
2022-10-19T05:47:21.870Z,9.418304
2022-10-19T05:48:21.863Z,9.418344
2022-10-19T05:49:21.861Z,9.418302
2022-10-19T05:50:21.829Z,9.418113
2022-10-19T05:51:21.844Z,9.418159
2022-10-19T05:52:21.846Z,9.418324
2022-10-19T05:53:21.818Z,9.418339
2022-10-19T05:54:23.806Z,9.418296
2022-10-19T05:55:21.805Z,9.418274
2022-10-19T05:56:21.799Z,9.418293
2022-10-19T05:57:21.786Z,9.418498
2022-10-19T05:58:21.798Z,9.418488
2022-10-19T05:59:21.782Z,9.418354
2022-10-19T06:00:21.767Z,9.418267
2022-10-19T06:01:21.754Z,9.418295
2022-10-19T06:02:21.755Z,9.418222
2022-10-19T06:03:21.806Z,9.418200
2022-10-19T06:04:21.739Z,9.418121
2022-10-19T06:05:21.735Z,9.418309
2022-10-19T06:06:21.731Z,9.418313
2022-10-19T06:07:21.720Z,9.418407
2022-10-19T06:08:21.742Z,9.418495
2022-10-19T06:09:21.711Z,9.418268
2022-10-19T06:10:21.710Z,9.418446
2022-10-19T06:11:21.694Z,9.418392
2022-10-19T06:12:24.960Z,9.418340
2022-10-19T06:13:22.733Z,9.418354
2022-10-19T06:14:21.800Z,9.418280
2022-10-19T06:15:21.662Z,9.418201
2022-10-19T06:16:21.660Z,9.418400
2022-10-19T06:17:21.653Z,9.418639
2022-10-19T06:18:21.638Z,9.418423
2022-10-19T06:19:21.643Z,9.418365
2022-10-19T06:20:21.638Z,9.418379
2022-10-19T06:21:21.622Z,9.418288
2022-10-19T06:22:21.620Z,9.418325
2022-10-19T06:23:21.602Z,9.418252
2022-10-19T06:24:21.614Z,9.418222
2022-10-19T06:25:21.590Z,9.418294
2022-10-19T06:26:21.578Z,9.418218
2022-10-19T06:27:21.632Z,9.418229
2022-10-19T06:28:21.574Z,9.418328
2022-10-19T06:29:21.577Z,9.418242
2022-10-19T06:30:21.649Z,9.418210
2022-10-19T06:31:21.550Z,9.418344
2022-10-19T06:32:21.534Z,9.418326
2022-10-19T06:33:21.532Z,9.418429
2022-10-19T06:34:21.619Z,9.418371
2022-10-19T06:35:21.545Z,9.418462
2022-10-19T06:36:21.514Z,9.418274
2022-10-19T06:37:21.505Z,9.418249
2022-10-19T06:38:21.493Z,9.418258
2022-10-19T06:39:21.494Z,9.418211
2022-10-19T06:40:21.531Z,9.418221
2022-10-19T06:41:21.477Z,9.418133
2022-10-19T06:42:21.473Z,9.418127
2022-10-19T06:43:21.461Z,9.418180
2022-10-19T06:44:21.456Z,9.418221
2022-10-19T06:45:21.470Z,9.418399
2022-10-19T06:46:21.437Z,9.418327
2022-10-19T06:47:21.430Z,9.418306
2022-10-19T06:48:21.438Z,9.418334
2022-10-19T06:49:21.415Z,9.418118
2022-10-19T06:50:21.417Z,9.418367
2022-10-19T06:51:21.405Z,9.418159
2022-10-19T06:52:21.394Z,9.418299
2022-10-19T06:53:21.391Z,9.418304
2022-10-19T06:54:21.389Z,9.418307
2022-10-19T06:55:21.414Z,9.418325
2022-10-19T06:56:21.405Z,9.418263
2022-10-19T06:57:21.540Z,9.418208
2022-10-19T06:58:21.353Z,9.418287
2022-10-19T06:59:21.395Z,9.418312
2022-10-19T07:00:21.349Z,9.418292
2022-10-19T07:01:21.407Z,9.418226
2022-10-19T07:02:21.325Z,9.418139
2022-10-19T07:03:21.362Z,9.418277
2022-10-19T07:04:21.305Z,9.418203
2022-10-19T07:05:21.302Z,9.418370
2022-10-19T07:06:21.317Z,9.418318
2022-10-19T07:07:21.286Z,9.418547
2022-10-19T07:08:21.289Z,9.418315
2022-10-19T07:09:21.262Z,9.418363
2022-10-19T07:10:21.290Z,9.418324
2022-10-19T07:11:21.262Z,9.418492
2022-10-19T07:12:21.258Z,9.418312
2022-10-19T07:13:21.291Z,9.418323
2022-10-19T07:14:21.241Z,9.418472
2022-10-19T07:15:21.230Z,9.418358
2022-10-19T07:16:21.737Z,9.418275
2022-10-19T07:17:21.213Z,9.418392
2022-10-19T07:18:21.230Z,9.418222
2022-10-19T07:19:21.201Z,9.418199
2022-10-19T07:20:21.190Z,9.418379
2022-10-19T07:21:21.181Z,9.418338
2022-10-19T07:22:25.770Z,9.418220
2022-10-19T07:23:23.184Z,9.418193
2022-10-19T07:24:21.165Z,9.418263
2022-10-19T07:25:21.157Z,9.418263
2022-10-19T07:26:21.155Z,9.418298
2022-10-19T07:27:21.175Z,9.418423
2022-10-19T07:28:21.150Z,9.418371
2022-10-19T07:29:21.123Z,9.418388
2022-10-19T07:30:21.126Z,9.418348
2022-10-19T07:31:21.122Z,9.418184
2022-10-19T07:32:21.118Z,9.418302
2022-10-19T07:33:21.101Z,9.418391
2022-10-19T07:34:24.164Z,9.418284
2022-10-19T07:35:22.094Z,9.418280
2022-10-19T07:36:21.084Z,9.418299
2022-10-19T07:37:21.080Z,9.418312
2022-10-19T07:38:21.101Z,9.418288
2022-10-19T07:39:21.069Z,9.418155
2022-10-19T07:40:21.074Z,9.418231
2022-10-19T07:41:21.058Z,9.418291
2022-10-19T07:43:21.033Z,9.418489
2022-10-19T07:44:21.022Z,9.418361
2022-10-19T07:45:21.028Z,9.418437
2022-10-19T07:46:21.024Z,9.418367
2022-10-19T07:47:21.017Z,9.418344
2022-10-19T07:48:20.998Z,9.418229
2022-10-19T07:49:21.048Z,9.418062
2022-10-19T07:50:21.019Z,9.418231
2022-10-19T07:51:21.049Z,9.418277
2022-10-19T07:52:20.973Z,9.418358
2022-10-19T07:53:20.972Z,9.418269
2022-10-19T07:54:20.960Z,9.418221
2022-10-19T07:55:20.964Z,9.418214
2022-10-19T07:56:20.965Z,9.418223
2022-10-19T07:57:20.940Z,9.418357
2022-10-19T07:58:20.941Z,9.418282
2022-10-19T07:59:20.929Z,9.418239
2022-10-19T08:00:20.961Z,9.418268
2022-10-19T08:01:20.933Z,9.418244
2022-10-19T08:02:20.995Z,9.418261
2022-10-19T08:05:22.926Z,9.418428
2022-10-19T08:06:20.929Z,9.418510
2022-10-19T08:07:20.893Z,9.418412
2022-10-19T08:08:20.874Z,9.418381
2022-10-19T08:09:50.924Z,9.418299
2022-10-19T08:10:22.872Z,9.418309
2022-10-19T08:11:20.858Z,9.418311
2022-10-19T08:12:20.849Z,9.418343
2022-10-19T08:13:20.876Z,9.418346
2022-10-19T08:14:20.838Z,9.418408
2022-10-19T08:15:20.830Z,9.418278
2022-10-19T08:16:20.828Z,9.418321
2022-10-19T08:17:20.885Z,9.418310
2022-10-19T08:18:20.815Z,9.418302
2022-10-19T08:19:20.805Z,9.418356
2022-10-19T08:20:20.802Z,9.418344
2022-10-19T08:21:20.813Z,9.418308
2022-10-19T08:22:20.797Z,9.418244
2022-10-19T08:23:20.802Z,9.418255
2022-10-19T08:24:20.777Z,9.418241
2022-10-19T08:25:20.768Z,9.418031
2022-10-19T08:26:20.760Z,9.418182
2022-10-19T08:27:20.753Z,9.418216
2022-10-19T08:28:20.757Z,9.418290
2022-10-19T08:29:20.781Z,9.418237
2022-10-19T08:30:20.797Z,9.418324
2022-10-19T08:31:20.729Z,9.418338
2022-10-19T08:32:20.722Z,9.418349
2022-10-19T08:33:20.721Z,9.418369
2022-10-19T08:34:20.736Z,9.418308
2022-10-19T08:35:20.700Z,9.418255
2022-10-19T08:36:20.702Z,9.418286
2022-10-19T08:37:40.090Z,9.418318
2022-10-19T08:38:21.679Z,9.418344
2022-10-19T08:39:20.680Z,9.418271
2022-10-19T08:40:20.720Z,9.418286
2022-10-19T08:41:20.652Z,9.418202
2022-10-19T08:42:20.645Z,9.418183
2022-10-19T08:43:20.653Z,9.418304
2022-10-19T08:44:20.649Z,9.418183
2022-10-19T08:45:20.655Z,9.418396
2022-10-19T08:46:20.621Z,9.418318
2022-10-19T08:47:33.238Z,9.418414
2022-10-19T08:48:22.608Z,9.418240
2022-10-19T08:49:20.599Z,9.418238
2022-10-19T08:50:20.636Z,9.418294
2022-10-19T08:51:20.589Z,9.418337
2022-10-19T08:52:20.590Z,9.418290
2022-10-19T08:53:20.568Z,9.418267
2022-10-19T08:54:20.556Z,9.418093
2022-10-19T08:55:20.762Z,9.418145
2022-10-19T08:56:38.787Z,9.418229
2022-10-19T08:57:22.564Z,9.418035
2022-10-19T08:58:20.564Z,9.418133
2022-10-19T08:59:20.527Z,9.418216
2022-10-19T09:00:20.552Z,9.418289
2022-10-19T09:01:20.528Z,9.418216
2022-10-19T09:02:20.519Z,9.418182
2022-10-19T09:03:32.088Z,9.418195
2022-10-19T09:04:21.501Z,9.418168
2022-10-19T09:05:20.485Z,9.418455
2022-10-19T09:06:20.499Z,9.418169
2022-10-19T09:07:20.488Z,9.418184
2022-10-19T09:08:20.468Z,9.418197
2022-10-19T09:09:20.452Z,9.418312
2022-10-19T09:10:20.556Z,9.418334
2022-10-19T09:11:20.448Z,9.418235
2022-10-19T09:12:20.442Z,9.418250
2022-10-19T09:13:20.451Z,9.418321
2022-10-19T09:14:20.445Z,9.418215
2022-10-19T09:15:20.442Z,9.418236
2022-10-19T09:16:20.416Z,9.418139
2022-10-19T09:17:20.410Z,9.418156
2022-10-19T09:18:20.400Z,9.418268
2022-10-19T09:19:20.401Z,9.418385
2022-10-19T09:20:20.388Z,9.418180
2022-10-19T09:21:20.382Z,9.418002
2022-10-19T09:22:20.372Z,9.418176
2022-10-19T09:23:20.372Z,9.418238
2022-10-19T09:24:20.372Z,9.418184
2022-10-19T09:25:20.356Z,9.418330
2022-10-19T09:26:20.348Z,9.418299
2022-10-19T09:27:20.345Z,9.418337
2022-10-19T09:28:20.328Z,9.418290
2022-10-19T09:29:20.372Z,9.418448
2022-10-19T09:30:20.339Z,9.418459
2022-10-19T09:31:20.328Z,9.418146
2022-10-19T09:32:20.304Z,9.418236
2022-10-19T09:33:20.300Z,9.417923
2022-10-19T09:34:20.304Z,9.418145
2022-10-19T09:35:20.304Z,9.418052
2022-10-19T09:36:23.051Z,9.418070
2022-10-19T09:37:25.970Z,9.418046
2022-10-19T09:38:22.272Z,9.418094
2022-10-19T09:39:20.260Z,9.418073
2022-10-19T09:40:20.268Z,9.418122
2022-10-19T09:41:20.252Z,9.418260
2022-10-19T09:42:20.245Z,9.418305
2022-10-19T09:43:20.250Z,9.418350
2022-10-19T09:44:20.227Z,9.418389
2022-10-19T09:45:20.243Z,9.418388
2022-10-19T09:46:20.604Z,9.418398
2022-10-19T09:47:21.216Z,9.418439
2022-10-19T09:48:20.204Z,9.418344
2022-10-19T09:49:20.201Z,9.418247
2022-10-19T09:50:20.231Z,9.418301
2022-10-19T09:51:20.183Z,9.418286
2022-10-19T09:52:20.183Z,9.418174
2022-10-19T09:53:20.177Z,9.418207
2022-10-19T09:54:20.177Z,9.418231
2022-10-19T09:55:20.160Z,9.418192
2022-10-19T09:56:20.169Z,9.418213
2022-10-19T09:57:20.161Z,9.418159
2022-10-19T09:58:21.147Z,9.418215
2022-10-19T09:59:20.139Z,9.418241
2022-10-19T10:00:20.136Z,9.418208
2022-10-19T10:01:20.147Z,9.418243
2022-10-19T10:02:20.128Z,9.418229
2022-10-19T10:03:20.122Z,9.418289
2022-10-19T10:04:20.116Z,9.418203
2022-10-19T10:05:20.104Z,9.418310
2022-10-19T10:06:20.133Z,9.418107
2022-10-19T10:07:20.089Z,9.418276
2022-10-19T10:08:20.084Z,9.418243
2022-10-19T10:09:20.067Z,9.418216
2022-10-19T10:10:20.079Z,9.418256
2022-10-19T10:11:20.077Z,9.418275
2022-10-19T10:12:20.052Z,9.418270
2022-10-19T10:13:20.054Z,9.418338
2022-10-19T10:14:20.035Z,9.418255
2022-10-19T10:15:20.039Z,9.418343
2022-10-19T10:16:20.049Z,9.418409
2022-10-19T10:17:20.018Z,9.418237
2022-10-19T10:18:20.017Z,9.418256
2022-10-19T10:19:23.108Z,9.418250
2022-10-19T10:20:20.000Z,9.418260
2022-10-19T10:21:25.179Z,9.418256
2022-10-19T10:22:22.001Z,9.417985
2022-10-19T10:23:19.980Z,9.418292
2022-10-19T10:24:19.963Z,9.418055
2022-10-19T10:25:19.967Z,9.418282
2022-10-19T10:26:19.983Z,9.418214
2022-10-19T10:27:19.947Z,9.418281
2022-10-19T10:28:19.947Z,9.418383
2022-10-19T10:29:19.936Z,9.418358
2022-10-19T10:30:19.931Z,9.418225
2022-10-19T10:31:19.952Z,9.418117
2022-10-19T10:32:19.934Z,9.418124
2022-10-19T10:33:27.279Z,9.418165
2022-10-19T10:34:28.514Z,9.418139
2022-10-19T10:35:21.907Z,9.418330
2022-10-19T10:36:19.904Z,9.418323
2022-10-19T10:37:19.940Z,9.418299
2022-10-19T10:38:19.876Z,9.418218
2022-10-19T10:39:19.876Z,9.418194
2022-10-19T10:40:23.286Z,9.418235
2022-10-19T10:41:20.868Z,9.418087
2022-10-19T10:42:19.847Z,9.418165
2022-10-19T10:43:19.867Z,9.418128
2022-10-19T10:44:19.840Z,9.418070
2022-10-19T10:45:19.831Z,9.418243
2022-10-19T10:46:19.819Z,9.418159
2022-10-19T10:47:19.815Z,9.418168
2022-10-19T10:48:19.832Z,9.418160
2022-10-19T10:49:19.796Z,9.418029
2022-10-19T10:50:19.796Z,9.418111
2022-10-19T10:51:19.794Z,9.418057
2022-10-19T10:52:19.795Z,9.418151
2022-10-19T10:53:19.775Z,9.418118
2022-10-19T10:54:19.770Z,9.417902
2022-10-19T10:55:19.773Z,9.417992
2022-10-19T10:56:19.764Z,9.417939
2022-10-19T10:57:19.824Z,9.418138
2022-10-19T10:58:19.743Z,9.418062
2022-10-19T10:59:19.744Z,9.417922
2022-10-19T11:00:19.773Z,9.418019
2022-10-19T11:01:19.758Z,9.417944
2022-10-19T11:02:19.760Z,9.418183
2022-10-19T11:03:19.747Z,9.418136
2022-10-19T11:04:19.711Z,9.418253
2022-10-19T11:05:19.711Z,9.418116
2022-10-19T11:06:19.744Z,9.418109
2022-10-19T11:07:19.713Z,9.418083
2022-10-19T11:08:19.700Z,9.418167
2022-10-19T11:09:20.682Z,9.418243
2022-10-19T11:10:19.683Z,9.418201
2022-10-19T11:11:19.667Z,9.418143
2022-10-19T11:12:19.671Z,9.418107
2022-10-19T11:13:19.647Z,9.418179
2022-10-19T11:14:19.663Z,9.418221
2022-10-19T11:15:19.715Z,9.418210
2022-10-19T11:16:19.644Z,9.418158
2022-10-19T11:17:19.637Z,9.418177
2022-10-19T11:18:19.625Z,9.418212
2022-10-19T11:19:19.654Z,9.418180
2022-10-19T11:20:19.628Z,9.418274
2022-10-19T11:21:19.620Z,9.418195
2022-10-19T11:22:22.427Z,9.418173
2022-10-19T11:23:21.596Z,9.418210
2022-10-19T11:24:19.685Z,9.418278
2022-10-19T11:25:19.619Z,9.418262
2022-10-19T11:26:19.582Z,9.418322
2022-10-19T11:27:19.564Z,9.418310
2022-10-19T11:28:19.560Z,9.418281
2022-10-19T11:29:19.552Z,9.418262
2022-10-19T11:30:20.191Z,9.418186
2022-10-19T11:31:19.626Z,9.418099
2022-10-19T11:32:19.530Z,9.418113
2022-10-19T11:33:19.560Z,9.418187
2022-10-19T11:34:23.620Z,9.418187
2022-10-19T11:35:20.526Z,9.418303
2022-10-19T11:36:19.510Z,9.418120
2022-10-19T11:37:19.512Z,9.418219
2022-10-19T11:38:22.107Z,9.418158
2022-10-19T11:39:20.503Z,9.418144
2022-10-19T11:40:22.094Z,9.418285
2022-10-19T11:41:20.491Z,9.418267
2022-10-19T11:42:19.474Z,9.418228
2022-10-19T11:43:20.454Z,9.418145
2022-10-19T11:44:20.159Z,9.418126
2022-10-19T11:45:19.467Z,9.418168
2022-10-19T11:46:19.454Z,9.418206
2022-10-19T11:47:19.456Z,9.418357
2022-10-19T11:48:19.466Z,9.418406
2022-10-19T11:49:19.431Z,9.418458